Time;durP1;ratioP1;P1;durP2;ratioP2;P2;SDS_P1;SDS_P2;PMS_P1;PMS_P2;Temp;Humidity;BMP_temperature;BMP_pressure;BME280_temperature;BME280_humidity;BME280_pressure;Samples;Min_cycle;Max_cycle;Signal;HPM_P1;HPM_P2
2022/07/08 00:01:24;;;;;;;9.57;1.63;;;14.70;99.90;;;;;;5009109;28;20096;-83
2022/07/08 00:03:49;;;;;;;12.97;2.10;;;14.70;99.90;;;;;;5049480;28;20488;-84
2022/07/08 00:06:15;;;;;;;12.40;1.83;;;14.70;99.90;;;;;;5054447;28;20504;-83
2022/07/08 00:08:42;;;;;;;5.87;1.60;;;14.70;99.90;;;;;;5037182;28;20060;-84
2022/07/08 00:11:08;;;;;;;11.73;2.03;;;14.70;99.90;;;;;;5037632;28;20045;-83
2022/07/08 00:13:34;;;;;;;10.23;2.03;;;14.70;99.90;;;;;;5038151;28;20064;-84
2022/07/08 00:16:00;;;;;;;11.30;1.67;;;14.60;99.90;;;;;;5054226;28;20037;-83
2022/07/08 00:18:25;;;;;;;6.90;1.83;;;14.60;99.90;;;;;;5035977;28;20045;-83
2022/07/08 00:20:51;;;;;;;15.13;3.00;;;14.60;99.90;;;;;;5037286;28;20040;-84
2022/07/08 00:23:17;;;;;;;11.07;1.80;;;14.60;99.90;;;;;;5037482;28;20049;-85
2022/07/08 00:25:44;;;;;;;10.00;1.70;;;14.60;99.90;;;;;;5020435;28;20040;-84
2022/07/08 00:28:09;;;;;;;13.47;1.83;;;14.50;99.90;;;;;;5054084;28;20064;-85
2022/07/08 00:30:35;;;;;;;8.93;1.97;;;14.50;99.90;;;;;;5020261;28;20496;-85
2022/07/08 00:33:01;;;;;;;12.53;2.57;;;14.40;99.90;;;;;;5019606;28;20047;-84
2022/07/08 00:35:27;;;;;;;8.27;1.80;;;14.40;99.90;;;;;;5035943;28;20037;-82
2022/07/08 00:37:53;;;;;;;12.20;2.07;;;14.30;99.90;;;;;;5020506;28;20132;-82
2022/07/08 00:40:19;;;;;;;12.23;1.90;;;14.30;99.90;;;;;;5020567;28;20094;-83
2022/07/08 00:42:48;;;;;;;9.77;2.07;;;14.30;99.90;;;;;;5037573;28;20427;-83
2022/07/08 00:45:14;;;;;;;10.07;1.67;;;14.20;99.90;;;;;;5036980;28;20055;-83
2022/07/08 00:47:40;;;;;;;8.10;2.00;;;14.30;99.90;;;;;;5036645;28;20131;-83
2022/07/08 00:50:06;;;;;;;10.17;2.13;;;14.20;99.90;;;;;;5052274;28;20048;-82
2022/07/08 00:52:32;;;;;;;10.83;2.20;;;14.20;99.90;;;;;;5016689;28;20049;-85
2022/07/08 00:54:59;;;;;;;7.43;1.57;;;14.20;99.90;;;;;;5016423;28;20052;-83
2022/07/08 00:57:25;;;;;;;8.87;2.40;;;14.20;99.90;;;;;;5002095;28;20107;-83
2022/07/08 00:59:54;;;;;;;10.73;1.93;;;14.20;99.90;;;;;;5000506;28;20068;-85
2022/07/08 01:02:19;;;;;;;7.43;1.50;;;14.20;99.90;;;;;;5017206;28;20406;-83
2022/07/08 01:04:45;;;;;;;10.33;1.90;;;14.10;99.90;;;;;;5017360;28;20055;-83
2022/07/08 01:07:11;;;;;;;7.57;2.20;;;14.10;99.90;;;;;;5009495;28;20041;-84
2022/07/08 01:09:37;;;;;;;8.60;2.03;;;14.10;99.90;;;;;;5036549;28;20064;-83
2022/07/08 01:12:04;;;;;;;13.47;2.53;;;14.10;99.90;;;;;;5053143;28;20056;-86
2022/07/08 01:14:30;;;;;;;11.57;2.17;;;14.10;99.90;;;;;;5037018;28;20451;-83
2022/07/08 01:16:57;;;;;;;14.20;2.40;;;13.90;99.90;;;;;;5019861;28;20044;-84
2022/07/08 01:19:23;;;;;;;10.63;2.03;;;13.90;99.90;;;;;;5052110;28;20072;-83
2022/07/08 01:21:50;;;;;;;12.93;2.07;;;13.80;99.90;;;;;;5053382;28;20037;-83
2022/07/08 01:24:16;;;;;;;8.93;2.37;;;13.80;99.90;;;;;;5016976;28;20425;-84
2022/07/08 01:26:42;;;;;;;8.63;1.70;;;13.70;99.90;;;;;;5016678;28;20053;-83
2022/07/08 01:29:08;;;;;;;12.70;2.33;;;13.70;99.90;;;;;;5016370;28;20056;-84
2022/07/08 01:31:34;;;;;;;10.07;2.10;;;13.60;99.90;;;;;;5016841;28;20045;-82
2022/07/08 01:34:00;;;;;;;12.53;2.77;;;13.60;99.90;;;;;;5023540;28;20041;-83
2022/07/08 01:36:25;;;;;;;10.47;2.00;;;13.60;99.90;;;;;;5016817;28;20140;-83
2022/07/08 01:38:52;;;;;;;13.93;2.83;;;13.50;99.90;;;;;;5017254;28;20080;-84
2022/07/08 01:41:18;;;;;;;12.63;2.13;;;13.50;99.90;;;;;;5032636;28;20108;-83
2022/07/08 01:43:44;;;;;;;13.40;2.17;;;13.50;99.90;;;;;;5031946;28;20128;-84
2022/07/08 01:46:10;;;;;;;11.30;2.03;;;13.40;99.90;;;;;;5032546;28;20141;-83
2022/07/08 01:48:36;;;;;;;15.60;2.40;;;13.40;99.90;;;;;;5033594;28;20045;-83
2022/07/08 01:51:01;;;;;;;14.67;2.67;;;13.30;99.90;;;;;;5032929;28;20500;-84
2022/07/08 01:53:27;;;;;;;13.40;2.40;;;13.30;99.90;;;;;;5011581;28;20094;-83
2022/07/08 01:55:55;;;;;;;16.27;2.43;;;13.20;99.90;;;;;;5036458;28;20053;-83
2022/07/08 01:58:21;;;;;;;10.03;2.40;;;13.10;99.90;;;;;;5010157;28;20064;-84
2022/07/08 02:00:47;;;;;;;7.73;2.10;;;13.10;99.90;;;;;;5016262;28;20515;-83
2022/07/08 02:03:12;;;;;;;9.80;2.03;;;13.10;99.90;;;;;;5000964;28;20049;-83
2022/07/08 02:05:38;;;;;;;9.27;2.50;;;13.00;99.90;;;;;;5017174;28;20466;-83
2022/07/08 02:08:04;;;;;;;14.90;2.93;;;13.00;99.90;;;;;;5035874;28;20045;-83
2022/07/08 02:12:18;;;;;;;12.87;2.17;;;13.00;99.90;;;;;;5019617;28;20049;-83
2022/07/08 02:13:18;;;;;;;15.63;2.40;;;12.90;99.90;;;;;;5035366;28;20661;-83
2022/07/08 02:15:44;;;;;;;12.73;2.47;;;12.90;99.90;;;;;;5018745;28;20388;-84
2022/07/08 02:18:10;;;;;;;13.37;2.83;;;12.90;99.90;;;;;;5034824;28;20048;-83
2022/07/08 02:20:36;;;;;;;12.17;2.30;;;12.90;99.90;;;;;;5029408;28;20048;-83
2022/07/08 02:23:02;;;;;;;11.53;2.70;;;12.80;99.90;;;;;;5002502;28;20404;-86
2022/07/08 02:25:27;;;;;;;14.23;3.00;;;12.80;99.90;;;;;;5018794;28;20037;-85
2022/07/08 02:27:53;;;;;;;15.20;2.20;;;12.80;99.90;;;;;;5017944;28;20055;-85
2022/07/08 02:30:20;;;;;;;12.73;2.50;;;12.80;99.90;;;;;;5018228;28;20132;-83
2022/07/08 02:32:46;;;;;;;18.80;2.87;;;12.80;99.90;;;;;;5016457;28;20049;-84
2022/07/08 02:35:12;;;;;;;11.83;2.57;;;12.70;99.90;;;;;;5009980;28;20052;-83
2022/07/08 02:37:37;;;;;;;12.77;2.60;;;12.70;99.90;;;;;;5055194;28;20041;-83
2022/07/08 02:40:04;;;;;;;10.07;2.63;;;12.70;99.90;;;;;;5038793;28;20040;-83
2022/07/08 02:42:30;;;;;;;13.73;2.73;;;12.70;99.90;;;;;;5038651;28;20135;-84
2022/07/08 02:44:56;;;;;;;12.70;2.40;;;12.70;99.90;;;;;;5022796;28;20143;-83
2022/07/08 02:47:23;;;;;;;9.53;2.20;;;12.70;99.90;;;;;;5022088;28;20114;-84
2022/07/08 02:49:48;;;;;;;10.80;2.40;;;12.70;99.90;;;;;;5030301;28;20044;-83
2022/07/08 02:52:14;;;;;;;12.47;2.30;;;12.70;99.90;;;;;;5014278;28;20055;-83
2022/07/08 02:54:40;;;;;;;9.67;2.27;;;12.60;99.90;;;;;;5038686;28;20049;-83
2022/07/08 02:57:06;;;;;;;11.20;2.70;;;12.60;99.90;;;;;;5054518;28;20045;-83
2022/07/08 02:59:31;;;;;;;13.20;2.50;;;12.70;99.90;;;;;;5001515;28;20065;-83
2022/07/08 03:01:57;;;;;;;16.63;2.87;;;12.70;99.90;;;;;;4983239;28;20684;-84
2022/07/08 03:04:24;;;;;;;12.33;2.30;;;12.70;99.90;;;;;;5015660;28;20067;-83
2022/07/08 03:06:50;;;;;;;11.13;2.53;;;12.70;99.90;;;;;;5006635;28;20045;-84
2022/07/08 03:09:16;;;;;;;9.53;2.63;;;12.80;99.90;;;;;;5035520;28;20519;-83
2022/07/08 03:11:42;;;;;;;14.10;3.10;;;12.80;99.90;;;;;;5021988;28;20474;-83
2022/07/08 03:14:08;;;;;;;13.70;2.70;;;12.80;99.90;;;;;;5022205;28;20061;-83
2022/07/08 03:16:35;;;;;;;12.93;2.60;;;12.80;99.90;;;;;;5038238;28;20036;-83
2022/07/08 03:19:01;;;;;;;10.97;2.40;;;12.80;99.90;;;;;;5018408;28;20042;-83
2022/07/08 03:21:28;;;;;;;7.37;2.20;;;12.80;99.90;;;;;;5043058;28;20034;-83
2022/07/08 03:23:54;;;;;;;13.87;2.90;;;12.80;99.90;;;;;;5015624;28;20050;-83
2022/07/08 03:26:19;;;;;;;10.57;2.77;;;12.80;99.90;;;;;;5015697;28;20046;-83
2022/07/08 03:28:45;;;;;;;8.93;2.53;;;12.80;99.90;;;;;;4999478;28;20041;-83
2022/07/08 03:31:11;;;;;;;13.23;2.40;;;12.70;99.90;;;;;;5039011;28;20045;-83
2022/07/08 03:33:38;;;;;;;12.67;2.40;;;12.70;99.90;;;;;;5035711;28;20504;-82
2022/07/08 03:36:06;;;;;;;13.77;2.50;;;12.70;99.90;;;;;;5035072;28;20037;-83
2022/07/08 03:38:33;;;;;;;14.47;3.13;;;12.70;99.90;;;;;;5035526;28;20081;-82
2022/07/08 03:43:43;;;;;;;;;;;12.60;99.90;;;;;;5036383;28;20511;-82
2022/07/08 03:46:09;;;;;;;12.10;2.47;;;12.60;99.90;;;;;;5019639;28;19917;-82
2022/07/08 03:48:35;;;;;;;11.17;2.30;;;12.60;99.90;;;;;;5022201;28;20044;-83
2022/07/08 03:51:00;;;;;;;9.00;2.23;;;12.60;99.90;;;;;;5055339;28;20347;-83
2022/07/08 03:53:26;;;;;;;12.83;2.70;;;12.50;99.90;;;;;;5055416;28;20561;-83
2022/07/08 03:55:55;;;;;;;14.83;3.20;;;12.50;99.90;;;;;;5022174;28;20059;-83
2022/07/08 03:58:20;;;;;;;8.90;2.70;;;12.60;99.90;;;;;;5037887;28;20144;-82
2022/07/08 04:00:46;;;;;;;14.10;2.43;;;12.60;99.90;;;;;;5047396;28;20116;-83
2022/07/08 04:03:12;;;;;;;13.37;2.63;;;12.60;99.90;;;;;;5037905;28;20040;-83
2022/07/08 04:05:38;;;;;;;11.47;2.80;;;12.60;99.90;;;;;;5037834;28;20055;-83
2022/07/08 04:08:04;;;;;;;9.83;2.60;;;12.60;99.90;;;;;;5021323;28;20080;-82
2022/07/08 04:10:30;;;;;;;8.87;2.30;;;12.70;99.90;;;;;;5038126;28;20594;-82
2022/07/08 04:12:57;;;;;;;11.43;2.30;;;12.70;99.90;;;;;;5037859;28;20056;-83
2022/07/08 04:15:23;;;;;;;12.20;2.60;;;12.80;99.90;;;;;;5054421;28;20539;-84
2022/07/08 04:17:48;;;;;;;16.07;2.67;;;12.80;99.90;;;;;;5052720;28;20067;-83
2022/07/08 04:20:14;;;;;;;10.53;2.53;;;12.80;99.90;;;;;;5018063;28;20476;-84
2022/07/08 04:22:40;;;;;;;16.80;2.67;;;12.80;99.90;;;;;;5017781;28;20155;-83
2022/07/08 04:25:07;;;;;;;10.40;2.40;;;12.80;99.90;;;;;;5032551;28;20041;-83
2022/07/08 04:27:33;;;;;;;16.00;2.73;;;12.80;99.90;;;;;;5034020;28;20053;-83
2022/07/08 04:30:00;;;;;;;9.73;2.73;;;12.80;99.90;;;;;;5034165;28;20048;-83
2022/07/08 04:32:26;;;;;;;11.47;2.27;;;12.90;99.90;;;;;;5033059;28;20042;-83
2022/07/08 04:34:52;;;;;;;12.10;2.83;;;12.90;99.90;;;;;;5012486;28;20037;-83
2022/07/08 04:37:17;;;;;;;8.90;2.53;;;13.00;99.90;;;;;;5034126;28;20123;-83
2022/07/08 04:39:43;;;;;;;12.30;2.40;;;13.00;99.90;;;;;;5034244;28;20041;-83
2022/07/08 04:42:09;;;;;;;15.57;2.53;;;13.00;99.90;;;;;;5018028;28;20044;-83
2022/07/08 04:44:35;;;;;;;9.63;2.80;;;13.10;99.90;;;;;;5001350;28;20106;-84
2022/07/08 04:47:02;;;;;;;10.47;2.70;;;13.10;99.90;;;;;;5001246;28;20096;-84
2022/07/08 04:49:28;;;;;;;11.10;2.67;;;13.10;99.90;;;;;;5008251;28;20120;-83
2022/07/08 04:51:54;;;;;;;11.23;2.30;;;13.10;99.90;;;;;;5033440;28;20136;-84
2022/07/08 04:54:19;;;;;;;12.93;2.63;;;13.10;99.90;;;;;;5036687;28;20041;-83
2022/07/08 04:56:45;;;;;;;12.67;2.60;;;13.20;99.90;;;;;;5036628;28;20041;-83
2022/07/08 04:59:11;;;;;;;7.07;2.20;;;13.20;99.90;;;;;;5021071;28;20090;-84
2022/07/08 05:01:36;;;;;;;14.00;3.10;;;13.20;99.90;;;;;;5035153;28;20037;-83
2022/07/08 05:04:04;;;;;;;12.23;2.37;;;13.20;99.90;;;;;;5036711;28;20455;-84
2022/07/08 05:06:30;;;;;;;14.90;2.37;;;13.20;99.90;;;;;;5020475;28;20389;-83
2022/07/08 05:08:55;;;;;;;14.70;2.50;;;13.30;99.90;;;;;;5020275;28;20047;-83
2022/07/08 05:11:21;;;;;;;10.37;2.43;;;13.30;99.90;;;;;;5053169;28;20419;-83
2022/07/08 05:13:47;;;;;;;10.87;2.67;;;13.30;99.90;;;;;;5036827;28;20195;-85
2022/07/08 05:16:13;;;;;;;10.67;2.20;;;13.40;99.90;;;;;;5026381;28;20049;-83
2022/07/08 05:18:40;;;;;;;11.87;2.80;;;13.40;99.90;;;;;;5036140;28;20455;-84
2022/07/08 05:21:07;;;;;;;13.27;3.07;;;13.50;99.90;;;;;;5016134;28;20205;-82
2022/07/08 05:23:33;;;;;;;10.17;2.17;;;13.60;99.90;;;;;;5033018;28;20483;-85
2022/07/08 05:25:58;;;;;;;14.60;2.80;;;13.70;99.90;;;;;;5032599;28;20065;-83
2022/07/08 05:28:24;;;;;;;16.93;2.83;;;13.80;99.90;;;;;;5032740;28;20096;-83
2022/07/08 05:30:50;;;;;;;14.83;2.90;;;13.90;99.90;;;;;;5006072;28;20045;-83
2022/07/08 05:33:15;;;;;;;16.37;3.10;;;14.10;99.90;;;;;;5052840;28;20116;-83
2022/07/08 05:35:41;;;;;;;11.20;2.40;;;14.20;99.90;;;;;;5052379;28;20069;-83
2022/07/08 05:38:08;;;;;;;13.40;2.40;;;14.30;99.90;;;;;;5052572;28;20044;-82
2022/07/08 05:40:34;;;;;;;12.70;2.70;;;14.50;99.90;;;;;;5036033;28;20347;-82
2022/07/08 05:43:00;;;;;;;12.80;2.40;;;14.60;99.90;;;;;;5036198;28;20450;-84
2022/07/08 05:45:25;;;;;;;12.90;2.37;;;14.70;99.90;;;;;;5018639;28;20492;-83
2022/07/08 05:47:51;;;;;;;15.13;2.63;;;14.80;99.90;;;;;;5018423;28;20041;-83
2022/07/08 05:50:17;;;;;;;7.70;2.20;;;14.90;99.90;;;;;;5034380;28;20076;-83
2022/07/08 05:52:43;;;;;;;9.70;2.30;;;15.00;99.90;;;;;;5052139;28;20047;-83
2022/07/08 05:55:11;;;;;;;12.10;2.70;;;15.00;99.90;;;;;;5035618;28;20045;-83
2022/07/08 05:57:36;;;;;;;7.00;2.53;;;15.00;99.90;;;;;;5035965;28;20480;-84
2022/07/08 06:00:03;;;;;;;8.90;2.20;;;15.10;99.90;;;;;;5051932;28;20127;-83
2022/07/08 06:02:38;;;;;;;10.60;2.67;;;15.20;99.90;;;;;;5024265;28;20069;-84
2022/07/08 06:05:04;;;;;;;16.73;3.17;;;15.20;99.90;;;;;;5030620;28;20048;-84
2022/07/08 06:07:32;;;;;;;14.83;2.40;;;15.20;99.90;;;;;;5035065;28;20047;-83
2022/07/08 06:09:59;;;;;;;10.13;2.60;;;15.30;99.90;;;;;;5035247;28;20045;-82
2022/07/08 06:12:26;;;;;;;13.60;2.57;;;15.40;99.90;;;;;;5035249;28;20099;-83
2022/07/08 06:14:52;;;;;;;15.83;2.93;;;15.60;99.90;;;;;;5018608;28;20059;-84
2022/07/08 06:17:17;;;;;;;12.63;2.50;;;15.70;99.90;;;;;;5035602;28;20052;-81
2022/07/08 06:19:43;;;;;;;14.60;2.77;;;15.80;99.90;;;;;;5033500;28;20496;-84
2022/07/08 06:22:09;;;;;;;9.77;2.60;;;15.90;99.90;;;;;;5029536;28;20036;-80
2022/07/08 06:24:35;;;;;;;12.97;2.73;;;15.90;99.90;;;;;;5018664;28;20049;-83
2022/07/08 06:27:00;;;;;;;17.77;3.00;;;15.90;99.90;;;;;;5018796;28;20048;-83
2022/07/08 06:29:28;;;;;;;11.40;2.23;;;16.00;99.90;;;;;;5034742;28;20052;-84
2022/07/08 06:31:53;;;;;;;17.87;2.90;;;16.10;99.90;;;;;;5034779;28;20048;-83
2022/07/08 06:34:19;;;;;;;12.27;2.10;;;16.20;99.90;;;;;;5019326;28;20044;-83
2022/07/08 06:36:45;;;;;;;10.37;2.33;;;16.30;99.90;;;;;;5025849;28;20083;-84
2022/07/08 06:39:11;;;;;;;13.33;2.10;;;16.50;99.90;;;;;;5034732;28;20091;-84
2022/07/08 06:41:36;;;;;;;9.60;2.27;;;16.60;99.90;;;;;;5018551;28;20033;-84
2022/07/08 06:44:03;;;;;;;12.03;2.77;;;16.60;99.90;;;;;;5051184;28;20044;-83
2022/07/08 06:46:30;;;;;;;15.43;2.50;;;16.70;99.90;;;;;;5034868;28;20048;-83
2022/07/08 06:48:56;;;;;;;14.47;2.60;;;16.80;99.90;;;;;;5018493;28;20110;-85
2022/07/08 06:51:22;;;;;;;9.40;1.70;;;16.90;99.90;;;;;;5017897;28;20049;-83
2022/07/08 06:54:34;;;;;;;13.53;2.40;;;17.00;99.90;;;;;;5015113;28;20049;-83
2022/07/08 06:56:40;;;;;;;12.70;2.00;;;17.10;99.90;;;;;;5014832;28;20079;-86
2022/07/08 06:59:06;;;;;;;14.30;2.80;;;17.20;99.90;;;;;;5015516;28;20041;-82
2022/07/08 07:01:33;;;;;;;10.97;2.40;;;17.20;99.90;;;;;;4998678;28;20493;-84
2022/07/08 07:03:59;;;;;;;13.20;2.30;;;17.30;99.90;;;;;;5020613;28;20053;-82
2022/07/08 07:06:25;;;;;;;16.70;2.83;;;17.30;99.90;;;;;;5034005;28;20557;-84
2022/07/08 07:08:50;;;;;;;10.30;2.40;;;17.40;99.90;;;;;;5018750;28;20037;-82
2022/07/08 07:11:16;;;;;;;12.93;2.30;;;17.40;99.90;;;;;;5018506;28;20041;-83
2022/07/08 07:13:42;;;;;;;11.77;2.00;;;17.50;99.90;;;;;;5035097;28;20139;-82
2022/07/08 07:16:08;;;;;;;14.27;2.80;;;17.60;99.90;;;;;;5051957;28;20091;-84
2022/07/08 07:18:35;;;;;;;12.13;2.47;;;17.60;99.90;;;;;;5054454;28;20060;-83
2022/07/08 07:21:00;;;;;;;9.90;2.27;;;17.70;99.90;;;;;;5018314;28;20034;-83
2022/07/08 07:23:26;;;;;;;16.13;2.47;;;17.80;99.90;;;;;;5033183;28;20095;-84
2022/07/08 07:25:52;;;;;;;15.97;2.60;;;17.90;99.90;;;;;;5018154;28;20053;-81
2022/07/08 07:28:18;;;;;;;8.00;2.33;;;18.00;99.90;;;;;;5018727;28;20053;-85
2022/07/08 07:30:43;;;;;;;11.37;2.60;;;18.00;99.90;;;;;;5017892;28;20543;-84
2022/07/08 07:33:09;;;;;;;11.90;2.27;;;18.00;99.90;;;;;;5018432;28;20474;-84
2022/07/08 07:35:37;;;;;;;12.17;1.90;;;18.10;99.90;;;;;;5018458;28;20033;-84
2022/07/08 07:38:02;;;;;;;11.00;1.87;;;18.10;99.90;;;;;;5037132;28;20072;-84
2022/07/08 07:40:28;;;;;;;12.73;2.33;;;18.20;99.90;;;;;;5037765;28;20118;-84
2022/07/08 07:42:54;;;;;;;11.50;2.30;;;18.30;99.90;;;;;;5055232;28;20084;-83
2022/07/08 07:45:20;;;;;;;7.07;1.93;;;18.30;99.90;;;;;;5037932;28;20045;-84
2022/07/08 07:47:45;;;;;;;14.10;2.30;;;18.40;99.90;;;;;;5037941;28;20139;-85
2022/07/08 07:50:12;;;;;;;10.83;2.33;;;18.40;99.90;;;;;;5037425;28;20051;-83
2022/07/08 07:52:39;;;;;;;12.80;2.20;;;18.40;99.90;;;;;;5054506;28;20102;-79
2022/07/08 07:55:05;;;;;;;11.33;2.10;;;18.40;99.90;;;;;;5036499;28;20076;-84
2022/07/08 07:57:31;;;;;;;14.03;2.17;;;18.30;99.90;;;;;;5018444;28;20479;-84
2022/07/08 07:59:57;;;;;;;12.30;2.53;;;18.30;99.90;;;;;;5017774;28;20049;-85
2022/07/08 08:02:23;;;;;;;12.70;2.40;;;18.40;99.90;;;;;;5017448;28;20572;-84
2022/07/08 08:04:49;;;;;;;10.13;2.20;;;18.50;99.90;;;;;;5008235;28;20056;-86
2022/07/08 08:07:14;;;;;;;9.80;1.80;;;18.50;99.90;;;;;;5016767;28;20129;-86
2022/07/08 08:09:41;;;;;;;6.83;1.83;;;18.50;99.90;;;;;;5017055;28;20340;-84
2022/07/08 08:12:08;;;;;;;9.20;1.90;;;18.50;99.90;;;;;;5017145;28;20051;-87
2022/07/08 08:14:33;;;;;;;12.93;2.33;;;18.60;99.90;;;;;;5037352;28;20132;-84
2022/07/08 08:16:59;;;;;;;10.20;2.30;;;18.70;99.90;;;;;;5053301;28;20567;-85
2022/07/08 08:19:25;;;;;;;10.60;2.37;;;18.70;99.90;;;;;;5036822;28;20051;-85
2022/07/08 08:21:51;;;;;;;7.07;2.03;;;18.60;99.90;;;;;;5052717;28;20049;-85
2022/07/08 08:24:16;;;;;;;10.17;2.13;;;18.70;99.90;;;;;;5019935;28;20128;-85
2022/07/08 08:26:44;;;;;;;8.37;1.97;;;18.80;99.90;;;;;;5015971;28;20045;-84
2022/07/08 08:29:10;;;;;;;10.40;2.40;;;18.90;99.90;;;;;;5033370;28;20136;-85
2022/07/08 08:31:35;;;;;;;11.70;2.03;;;19.00;99.90;;;;;;5053707;28;20131;-85
2022/07/08 08:34:01;;;;;;;10.60;2.20;;;19.10;99.90;;;;;;5019715;28;20043;-86
2022/07/08 08:36:27;;;;;;;8.50;2.20;;;19.20;99.90;;;;;;5032465;28;20047;-82
2022/07/08 08:38:53;;;;;;;9.17;2.00;;;19.40;99.90;;;;;;5016310;28;20042;-85
2022/07/08 08:41:20;;;;;;;7.97;1.83;;;19.60;99.90;;;;;;5036939;28;20412;-85
2022/07/08 08:43:48;;;;;;;11.73;2.27;;;19.70;99.90;;;;;;5036823;28;20041;-82
2022/07/08 08:46:17;;;;;;;9.73;2.13;;;19.80;99.90;;;;;;5036313;28;20057;-84
2022/07/08 08:48:46;;;;;;;9.40;2.60;;;19.80;99.90;;;;;;5035962;28;20041;-85
2022/07/08 08:51:13;;;;;;;10.13;2.20;;;19.80;99.90;;;;;;5032574;28;20096;-86
2022/07/08 08:53:44;;;;;;;8.47;2.10;;;19.90;99.90;;;;;;5035785;28;20036;-86
2022/07/08 08:56:12;;;;;;;16.17;2.50;;;20.00;99.90;;;;;;5036032;28;20087;-85
2022/07/08 08:58:38;;;;;;;7.87;2.27;;;20.10;99.90;;;;;;5020104;28;20045;-83
2022/07/08 09:01:08;;;;;;;9.57;2.33;;;20.10;99.90;;;;;;5036380;28;20490;-83
2022/07/08 09:03:34;;;;;;;9.57;2.30;;;20.00;99.90;;;;;;5020904;28;20475;-85
2022/07/08 09:05:59;;;;;;;9.27;2.30;;;20.00;99.90;;;;;;5029364;28;20068;-82
2022/07/08 09:08:25;;;;;;;9.13;2.20;;;20.00;99.90;;;;;;5027984;28;20037;-85
2022/07/08 09:10:51;;;;;;;11.07;2.57;;;19.80;99.90;;;;;;5019927;28;20103;-87
2022/07/08 09:13:17;;;;;;;13.57;2.20;;;19.70;99.90;;;;;;5036689;28;20041;-86
2022/07/08 09:15:45;;;;;;;13.10;2.90;;;19.60;99.90;;;;;;5035897;28;20041;-82
2022/07/08 09:18:14;;;;;;;10.90;2.37;;;19.50;99.90;;;;;;5037760;28;20049;-87
2022/07/08 09:20:42;;;;;;;8.53;2.47;;;19.40;99.90;;;;;;5019809;28;20055;-85
2022/07/08 09:23:16;;;;;;;8.03;1.97;;;19.50;99.90;;;;;;5003372;28;20056;-83
2022/07/08 09:25:44;;;;;;;8.40;2.20;;;19.50;99.90;;;;;;5004810;28;20068;-86
2022/07/08 09:28:10;;;;;;;10.00;2.40;;;19.50;99.90;;;;;;5039005;28;20040;-86
2022/07/08 09:30:36;;;;;;;9.43;2.20;;;19.60;99.90;;;;;;5009681;28;20044;-84
2022/07/08 09:33:03;;;;;;;10.87;2.63;;;19.60;99.90;;;;;;5030575;28;20036;-84
2022/07/08 09:35:35;;;;;;;8.37;2.23;;;19.70;99.90;;;;;;5039242;28;20044;-83
2022/07/08 09:38:05;;;;;;;9.97;2.60;;;19.80;99.90;;;;;;5038286;28;20054;-85
2022/07/08 09:40:31;;;;;;;11.20;2.20;;;20.00;99.90;;;;;;5022419;28;20066;-85
2022/07/08 09:42:59;;;;;;;9.10;2.23;;;20.20;99.90;;;;;;5021732;28;20040;-85
2022/07/08 09:45:29;;;;;;;13.93;2.70;;;20.30;99.90;;;;;;5009149;28;20404;-86
2022/07/08 09:48:01;;;;;;;7.20;2.00;;;20.50;99.90;;;;;;5017950;28;20046;-83
2022/07/08 09:50:33;;;;;;;10.40;2.60;;;20.60;99.90;;;;;;5038699;28;20135;-84
2022/07/08 09:52:59;;;;;;;8.93;2.20;;;20.70;99.90;;;;;;5039118;28;20044;-85
2022/07/08 09:55:31;;;;;;;9.20;2.07;;;20.80;99.90;;;;;;5022623;28;20564;-83
2022/07/08 09:57:59;;;;;;;10.67;2.57;;;20.80;99.90;;;;;;5038493;28;20040;-86
2022/07/08 10:00:25;;;;;;;8.90;2.20;;;20.70;99.90;;;;;;5048750;28;20051;-84
2022/07/08 10:02:51;;;;;;;11.03;2.43;;;20.60;99.90;;;;;;5013155;28;20032;-85
2022/07/08 10:05:17;;;;;;;10.70;2.43;;;20.50;99.90;;;;;;5033824;28;20487;-85
2022/07/08 10:07:44;;;;;;;9.00;1.80;;;20.50;99.90;;;;;;5014436;28;20040;-87
2022/07/08 10:10:10;;;;;;;8.87;2.03;;;20.50;99.90;;;;;;5044819;28;20052;-82
2022/07/08 10:12:37;;;;;;;10.97;2.40;;;20.40;99.90;;;;;;5031719;28;20071;-84
2022/07/08 10:15:04;;;;;;;9.47;2.63;;;20.30;99.90;;;;;;5038023;28;20047;-84
2022/07/08 10:17:38;;;;;;;10.27;2.60;;;20.10;99.90;;;;;;5012213;28;20445;-85
2022/07/08 10:20:05;;;;;;;15.07;2.67;;;20.00;99.90;;;;;;5033255;28;20328;-82
2022/07/08 10:22:33;;;;;;;9.50;2.73;;;19.80;99.90;;;;;;5051458;28;20056;-84
2022/07/08 10:25:02;;;;;;;8.00;2.23;;;19.70;99.90;;;;;;5017432;28;20037;-83
2022/07/08 10:27:28;;;;;;;11.97;2.47;;;19.70;99.90;;;;;;5018377;28;20071;-84
2022/07/08 10:30:12;;;;;;;9.00;2.40;;;19.60;99.90;;;;;;5034854;28;20059;-85
2022/07/08 10:32:38;;;;;;;;;;;19.60;99.90;;;;;;5050517;28;20049;-86
2022/07/08 10:35:09;;;;;;;9.90;2.50;;;19.70;99.90;;;;;;5009415;28;20381;-85
2022/07/08 10:37:56;;;;;;;11.47;2.57;;;19.80;99.90;;;;;;5034283;28;20675;-85
2022/07/08 10:40:49;;;;;;;10.17;2.43;;;20.10;99.90;;;;;;5017811;28;20045;-84
2022/07/08 10:43:28;;;;;;;10.03;2.27;;;20.30;99.90;;;;;;5035104;28;20048;-82
2022/07/08 10:46:19;;;;;;;8.07;2.50;;;20.40;99.90;;;;;;5017780;28;20057;-86
2022/07/08 10:48:52;;;;;;;9.03;2.23;;;20.40;99.90;;;;;;5042570;28;20055;-85
2022/07/08 10:51:44;;;;;;;7.97;2.77;;;20.60;99.90;;;;;;5017695;28;20057;-84
2022/07/08 10:54:23;;;;;;;10.17;2.60;;;20.70;99.90;;;;;;5038833;28;20491;-82
2022/07/08 10:56:53;;;;;;;9.53;2.00;;;20.80;99.90;;;;;;5055678;28;20041;-85
2022/07/08 10:59:20;;;;;;;10.67;2.77;;;20.80;99.90;;;;;;5038785;28;20041;-84
2022/07/08 11:01:50;;;;;;;11.43;2.60;;;20.80;99.90;;;;;;5056004;28;20052;-84
2022/07/08 11:04:27;;;;;;;6.80;2.30;;;20.90;99.90;;;;;;5054948;28;20073;-82
2022/07/08 11:06:55;;;;;;;8.53;2.07;;;20.90;99.90;;;;;;5026359;28;20128;-83
2022/07/08 11:09:22;;;;;;;7.40;2.60;;;21.00;99.90;;;;;;5021698;28;20471;-84
2022/07/08 11:11:50;;;;;;;9.83;2.70;;;21.10;99.90;;;;;;5038092;28;20049;-85
2022/07/08 11:14:15;;;;;;;8.97;2.00;;;21.20;99.90;;;;;;5021721;28;20052;-86
2022/07/08 11:16:41;;;;;;;8.97;2.10;;;21.40;99.90;;;;;;5036404;28;20041;-82
2022/07/08 11:19:08;;;;;;;8.67;2.17;;;21.60;99.90;;;;;;5029847;28;20036;-82
2022/07/08 11:21:34;;;;;;;9.70;2.17;;;21.80;99.90;;;;;;5048612;28;20439;-82
2022/07/08 11:23:59;;;;;;;7.37;2.37;;;21.90;99.90;;;;;;5037884;28;20047;-82
2022/07/08 11:26:25;;;;;;;7.13;2.10;;;22.00;99.90;;;;;;5037667;28;20049;-85
2022/07/08 11:28:52;;;;;;;9.52;2.60;;;22.00;99.90;;;;;;5038627;28;20561;-85
2022/07/08 11:31:23;;;;;;;7.75;2.17;;;22.20;99.90;;;;;;5020943;28;20077;-83
2022/07/08 11:33:49;;;;;;;8.87;2.27;;;22.70;99.90;;;;;;5022399;28;20041;-80
2022/07/08 11:36:16;;;;;;;13.35;2.80;;;23.20;99.90;;;;;;5054532;28;20484;-82
2022/07/08 11:38:42;;;;;;;7.50;1.98;;;23.30;99.90;;;;;;5021114;28;20037;-85
2022/07/08 11:41:07;;;;;;;10.48;2.40;;;23.60;99.90;;;;;;5038492;28;20507;-82
2022/07/08 11:43:33;;;;;;;9.65;2.40;;;24.00;99.90;;;;;;5055124;28;20100;-81
2022/07/08 11:46:00;;;;;;;12.68;2.25;;;24.30;99.90;;;;;;5013564;28;20041;-84
2022/07/08 11:48:35;;;;;;;8.88;2.20;;;24.30;99.90;;;;;;5037748;28;20127;-84
2022/07/08 11:51:01;;;;;;;7.88;2.10;;;24.30;99.90;;;;;;5022343;28;20049;-87
2022/07/08 11:53:27;;;;;;;6.40;1.63;;;24.30;99.90;;;;;;5038472;28;20496;-83
2022/07/08 11:55:52;;;;;;;8.07;2.22;;;24.40;99.90;;;;;;5038184;28;20424;-82
2022/07/08 11:58:22;;;;;;;5.75;1.83;;;24.90;99.90;;;;;;5038345;28;20048;-83
2022/07/08 12:00:48;;;;;;;8.32;2.10;;;25.30;99.90;;;;;;5020951;28;20453;-82
2022/07/08 12:03:15;;;;;;;6.82;2.03;;;25.40;99.90;;;;;;5020515;28;20048;-83
2022/07/08 12:05:41;;;;;;;7.10;1.80;;;25.50;99.90;;;;;;5021414;28;20080;-83
2022/07/08 12:08:10;;;;;;;4.90;1.90;;;25.60;99.90;;;;;;5033090;28;20736;-84
2022/07/08 12:10:36;;;;;;;6.78;1.92;;;25.40;99.90;;;;;;5034960;28;20516;-84
2022/07/08 12:13:01;;;;;;;5.85;2.00;;;25.10;99.90;;;;;;5035222;28;20144;-84
2022/07/08 12:15:34;;;;;;;6.57;1.75;;;24.70;99.90;;;;;;5034631;28;20278;-84
2022/07/08 12:17:59;;;;;;;7.75;1.88;;;24.70;99.90;;;;;;5052532;28;20788;-84
2022/07/08 12:20:34;;;;;;;8.73;2.00;;;24.60;99.90;;;;;;5038823;28;20088;-83
2022/07/08 12:23:00;;;;;;;8.45;2.22;;;24.50;99.90;;;;;;5002137;28;20087;-81
2022/07/08 12:25:26;;;;;;;6.22;2.22;;;24.20;99.90;;;;;;5001893;28;20041;-87
2022/07/08 12:27:56;;;;;;;4.82;1.90;;;23.90;99.90;;;;;;4985266;28;20045;-85
2022/07/08 12:30:25;;;;;;;11.23;2.25;;;24.20;99.90;;;;;;5001936;28;20048;-83
2022/07/08 12:32:51;;;;;;;9.20;2.00;;;24.50;99.90;;;;;;4989896;28;20033;-83
2022/07/08 12:35:17;;;;;;;8.20;2.63;;;24.80;99.90;;;;;;5013315;28;20041;-85
2022/07/08 12:37:44;;;;;;;7.60;2.00;;;25.30;99.90;;;;;;5025175;28;20033;-82
2022/07/08 12:40:14;;;;;;;8.35;1.90;;;25.60;99.90;;;;;;5041964;28;20488;-81
2022/07/08 12:42:40;;;;;;;4.88;1.50;;;25.40;99.00;;;;;;5058304;28;20479;-83